Steptoe Valley WMA, Nevada Weather observations

Data are for 10 minute period ending at time listed.
 Day   Time   Solar   Ave.   Ave.  Ave.  Vector  Max.   Baro.   Total    
  of    of     Rad.   Air    Rel.  Wind   Wind   Wind  Press.  Precip.   
Year   Day            Temp.  Hum.  Speed  Dir.   Gust                    
2017   (PST)  Kw/m2    F      %     mph   deg.    mph    mb.     in.     
-------------------------------------------------------------------------
 175   14:00   0.89   84.5    13    6.5   319    12.6   807.4    0.00 
 175   14:10   0.86   84.4    12    6.3   322    12.0   807.4    0.00 
 175   14:20   0.84   85.3     9    2.9     8    10.0   807.2    0.00 
 175   14:30   0.82   85.2    11    6.5   352    12.9   807.1    0.00 
 175   14:40   0.80   84.9    11    6.7   326    13.4   807.0    0.00 
 175   14:50   0.77   85.0    12    6.0   343    13.6   807.0    0.00 
 175   15:00   0.74   84.9    12    7.5   345    14.0   806.8    0.00 
 175   15:10   0.71   84.6    13    6.5   334    11.9   806.8    0.00 
 175   15:20   0.69   85.7    12    4.8   322    10.2   806.7    0.00 
 175   15:30   0.66   85.0    13    6.8   334    11.6   806.6    0.00 
 175   15:40   0.63   85.5    13    4.4   319     7.7   806.6    0.00 
 175   15:50   0.60   86.1    13    4.4   327    10.4   806.5    0.00 
 175   16:00   0.57   85.6    14    5.4   329     7.9   806.4    0.00 
 175   16:10   0.54   85.2    13    6.0   325    10.2   806.3    0.00 
 175   16:20   0.51   85.0    12    5.6   321    10.2   806.3    0.00 
 175   16:30   0.47   85.2    14    4.2   321     7.2   806.2    0.00 
 175   16:40   0.44   86.8    16    3.0   312     7.5   806.1    0.00 
 175   16:50   0.41   84.3    16    6.0   328     9.3   806.1    0.00 
 175   17:00   0.38   84.0    15    4.7   317     8.3   806.1    0.00 
 175   17:10   0.34   84.6    15    3.6   314     7.5   806.1    0.00 
 175   17:20   0.31   83.0    21    4.5   323     6.5   806.2    0.00 
 175   17:30   0.28   81.8    24    3.9   330     6.6   806.2    0.00 
 175   17:40   0.25   81.2    22    4.0   332     6.5   806.2    0.00 
 175   17:50   0.22   81.3    24    2.9   341     4.9   806.2    0.00 
 175   18:00   0.19   81.6    23    2.9   328     6.3   806.2    0.00 
 175   18:10   0.16   79.1    26    3.0   334     5.0   806.2    0.00 
 175   18:20   0.12   77.7    26    2.6   348     3.3   806.2    0.00 
 175   18:30   0.06   76.4    26    2.6   356     3.4   806.2    0.00 
 175   18:40   0.08   76.1    24    3.0   355     4.2   806.2    0.00 
 175   18:50   0.06   75.1    25    1.0   343     2.6   806.2    0.00 
 175   19:00   0.04   72.3    30    0.5   200     1.5   806.3    0.00 
 175   19:10   0.01   68.6    27    1.5   152     2.8   806.4    0.00 
 175   19:20   0.01   70.5    19    3.4   155     6.6   806.4    0.00 
 175   19:30   0.00   71.2    18    1.2    39     3.7   806.4    0.00 
 175   19:40   0.00   67.6    22    0.6   137     2.2   806.5    0.00 
 175   19:50   0.00   66.4    22    1.4   159     2.6   806.6    0.00 
 175   20:00   0.00   66.9    20    1.2   112     4.9   806.6    0.00 
 175   20:10   0.00   64.3    23    3.6     4     6.8   806.7    0.00 
 175   20:20   0.00   64.3    22    2.1   355     5.4   806.8    0.00 
 175   20:30   0.00   62.1    24    0.8    82     3.5   806.8    0.00 
 175   20:40   0.00   61.7    23    3.2   145     4.9   806.9    0.00 
 175   20:50   0.00   61.2    24    2.1   153     4.1   807.1    0.00 
 175   21:00   0.00   61.9    22    2.9   144     4.8   807.2    0.00 
 175   21:10   0.00   58.0    30    3.3   168     4.8   807.4    0.00 
 175   21:20   0.00   55.1    33    2.1   159     3.2   807.3    0.00 
 175   21:30   0.00   52.8    40    1.8   152     3.6   807.4    0.00 
 175   21:40   0.00   53.2    35    1.7   159     3.9   807.5    0.00 
 175   21:50   0.00   53.3    33    2.7   156     4.2   807.6    0.00 
 175   22:00   0.00   57.0    26    1.7   128     5.3   807.6    0.00 
 175   22:10   0.00   57.0    26    2.1   111     4.2   807.6    0.00 
 175   22:20   0.00   54.4    28    2.1   130     6.6   807.6    0.00 
 175   22:30   0.00   51.9    36    1.5   100     3.8   807.6    0.00 
 175   22:40   0.00   49.4    31    1.7   133     3.3   807.7    0.00 
 175   22:50   0.00   50.4    29    2.1   112     3.2   807.8    0.00 
 175   23:00   0.00   50.0    34    0.9   129     2.3   807.8    0.00 
 175   23:10   0.00   44.8    52    2.0   180     3.6   807.9    0.00 
 175   23:20   0.00   45.0    41    3.5   121     5.8   807.8    0.00 
 175   23:30   0.00   49.7    32    3.0   146     5.3   807.8    0.00 
 175   23:40   0.00   51.6    32    1.9   144     3.1   807.9    0.00 
 175   23:50   0.00   51.2    33    1.0   128     2.8   807.9    0.00 
 176    0:00   0.00   46.8    45    1.7   164     2.7   808.0    0.00 
 176    0:10   0.00   46.8    40    1.9   129     5.5   808.0    0.00 
 176    0:20   0.00   48.7    34    2.8   146     6.3   808.2    0.00 
 176    0:30   0.00   45.4    42    3.9   172     5.3   808.3    0.00 
 176    0:40   0.00   45.0    41    4.3   179     6.9   808.3    0.00 
 176    0:50   0.00   48.7    34    4.4   155     7.5   808.4    0.00 
 176    1:00   0.00   44.8    44    2.4   185     3.9   808.4    0.00 
 176    1:10   0.00   41.6    48    3.0   161     4.7   808.4    0.00 
 176    1:20   0.00   41.6    48    0.3   177     1.8   808.4    0.00 
 176    1:30   0.00   41.3    50    2.1   167     4.3   808.4    0.00 
 176    1:40   0.00   39.6    53    1.2   185     3.5   808.5    0.00 
 176    1:50   0.00   40.6    47    1.0   151     1.5   808.5    0.00 
 176    2:00   0.00   41.4    49    1.6   180     2.9   808.6    0.00 
 176    2:10   0.00   39.9    52    2.2   169     3.8   808.6    0.00 
 176    2:20   0.00   39.8    50    1.9   165     3.4   808.7    0.00 
 176    2:30   0.00   39.3    50    2.2   159     3.7   808.8    0.00 
 176    2:40   0.00   38.2    55    2.9   184     4.5   808.8    0.00 
 176    2:50   0.00   38.5    57    1.7   153     3.3   808.8    0.00 
 176    3:00   0.00   38.8    57    0.4     3     1.8   808.8    0.00 
 176    3:10   0.00   38.6    54    0.1   113     1.0   808.8    0.00 
 176    3:20   0.00   38.2    55    2.0   173     3.7   808.8    0.00 
 176    3:30   0.00   37.2    56    2.2   169     4.6   808.8    0.00 
 176    3:40   0.00   36.4    58    2.0   171     3.1   808.8    0.00 
 176    3:50   0.00   36.4    58    2.9   168     4.1   808.9    0.00 
 176    4:00   0.00   35.3    64    2.2   183     3.0   808.9    0.00 
 176    4:10   0.00   34.2    67    2.9   174     4.4   809.0    0.00 
 176    4:20   0.00   35.7    60    2.3   154     4.0   809.1    0.00 
 176    4:30   0.01   35.2    59    2.2   155     5.6   809.2    0.00 
 176    4:40   0.01   37.4    52    1.2   160     2.9   809.3    0.00 
 176    4:50   0.02   39.0    48    1.5   152     2.7   809.5    0.00 
 176    5:00   0.02   38.1    53    2.1   174     2.9   809.4    0.00 
 176    5:10   0.02   37.0    57    0.7   165     1.5   809.4    0.00 
 176    5:20   0.02   37.6    54    1.9   156     4.3   809.4    0.00 
 176    5:30   0.07   39.8    57    3.5   159     4.3   809.3    0.00 
 176    5:40   0.18   44.3    55    2.8   163     4.3   809.3    0.00 
 176    5:50   0.21   48.1    47    2.8   159     4.6   809.3    0.00 
 176    6:00   0.24   51.8    45    2.2   161     3.1   809.3    0.00 
 176    6:10   0.27   54.2    41    3.8   171     7.5   809.4    0.00 
 176    6:20   0.31   56.1    32    4.9   162     7.2   809.3    0.00 
 176    6:30   0.34   59.0    33    4.8   196     7.5   809.2    0.00 
 176    6:40   0.37   60.7    32    3.7   197     5.5   809.2    0.00 
 176    6:50   0.41   62.7    31    3.2   199     5.2   809.1    0.00 
 176    7:00   0.44   64.3    28    3.0   222     5.0   809.0    0.00 
 176    7:10   0.47   65.2    28    2.3   223     4.0   808.8    0.00 
 176    7:20   0.50   67.3    27    2.1   225     3.5   808.8    0.00 
 176    7:30   0.53   68.3    24    1.5   234     3.1   808.8    0.00 
 176    7:40   0.56   70.3    23    0.4   256     1.4   808.9    0.00 
 176    7:50   0.60   72.7    21    0.3   356     1.5   809.0    0.00 
 176    8:00   0.56   74.8    18    0.4   354     1.2   809.0    0.00 
 176    8:10   0.62   75.1    18    0.4   299     1.5   809.2    0.00 
 176    8:20   0.70   75.4    17    0.9   291     2.8   809.2    0.00 
 176    8:30   0.71   76.0    17    0.9   244     2.6   809.2    0.00 
 176    8:40   0.58   76.3    20    1.0    38     2.4   809.2    0.00 
 176    8:50   0.53   75.9    21    1.2   136     3.4   809.2    0.00 
 176    9:00   0.66   76.8    20    1.3     3     2.3   809.2    0.00 
 176    9:10   0.74   78.0    20    2.8   249     8.1   809.1    0.00 
 176    9:20   0.73   78.8    19    3.8   201     8.3   809.1    0.00 
 176    9:30   0.91   79.7    18    4.4   182     9.3   809.1    0.00 
 176    9:40   0.88   80.8    16    4.3   185    10.2   809.1    0.00 
 176    9:50   0.63   80.3    14    4.1   136    10.4   809.0    0.00 
 176   10:00   0.77   80.8    15    5.2   162    11.6   809.0    0.00 
 176   10:10   0.79   81.5    14    4.8   168    10.5   809.0    0.00 
 176   10:20   0.96   82.1    16    5.5   172    12.1   808.9    0.00 
 176   10:30   0.98   83.7    15    3.2   156     8.9   808.8    0.00 
 176   10:40   0.99   83.6    13    6.4   138    12.6   808.7    0.00 
 176   10:50   1.02   83.5    14    3.3    55    12.1   808.6    0.00 
 176   11:00   0.96   84.0    15    6.9   185    13.7   808.5    0.00 
 176   11:10   0.74   83.8    15    6.0   172    14.8   808.4    0.00 
 176   11:20   0.56   82.5    15    4.4   215     9.3   808.4    0.00 
 176   11:30   0.66   82.6    18    4.3   187     9.6   808.4    0.00 
 176   11:40   0.81   82.7    18    5.3   158    14.8   808.3    0.00 
 176   11:50   0.74   83.3    18    8.1   186    20.3   808.3    0.00 
 176   12:00   0.54   81.4    19    9.0   181    15.1   808.2    0.00 
 176   12:10   0.92   82.6    19    7.8   181    12.4   808.1    0.00 
 176   12:20   0.94   83.7    18    8.3   175    13.7   808.1    0.00 
 176   12:30   1.02   85.2    16    3.6   205     6.8   808.0    0.00 
 176   12:40   1.02   85.2    16    8.0   204    15.5   807.9    0.00 
 176   12:50   1.03   85.4    18    6.1   199    13.1   807.9    0.00 
 176   13:00   1.02   86.4    15    7.2   188    13.2   807.8    0.00 
 176   13:10   1.01   86.1    14    7.8   178    14.2   807.7    0.00 
 176   13:20   0.78   86.5    16    4.6   185     8.8   807.7    0.00 
 176   13:30   0.30   87.2    14    4.6   188    14.0   807.5    0.00 
 176   13:40   0.64   85.2    13    8.1   152    13.7   807.4    0.00 
 176   13:50   0.86   85.4    14    6.7   164    13.5   807.3    0.00 

Return to Steptoe Valley WMA graphs page.


Western Regional Climate Center,wrcc@dri.edu